sensor_id;sensor_type;location;lat;lon;timestamp;temperature;humidity
39325;DHT22;25037;49.488;9.900;2023-05-16T00:01:47;13.60;54.10
39325;DHT22;25037;49.488;9.900;2023-05-16T00:04:14;13.60;54.10
39325;DHT22;25037;49.488;9.900;2023-05-16T00:06:40;13.60;54.20
39325;DHT22;25037;49.488;9.900;2023-05-16T00:09:07;13.60;54.30
39325;DHT22;25037;49.488;9.900;2023-05-16T00:11:34;13.60;54.30
39325;DHT22;25037;49.488;9.900;2023-05-16T00:14:00;13.70;54.40
39325;DHT22;25037;49.488;9.900;2023-05-16T00:16:28;13.60;54.30
39325;DHT22;25037;49.488;9.900;2023-05-16T00:18:56;13.70;54.40
39325;DHT22;25037;49.488;9.900;2023-05-16T00:21:26;13.70;54.40
39325;DHT22;25037;49.488;9.900;2023-05-16T00:23:53;13.70;54.40
39325;DHT22;25037;49.488;9.900;2023-05-16T00:26:20;13.70;54.40
39325;DHT22;25037;49.488;9.900;2023-05-16T00:28:47;13.80;54.40
39325;DHT22;25037;49.488;9.900;2023-05-16T00:31:13;13.80;54.50
39325;DHT22;25037;49.488;9.900;2023-05-16T00:33:40;13.80;54.50
39325;DHT22;25037;49.488;9.900;2023-05-16T00:36:07;13.80;54.50
39325;DHT22;25037;49.488;9.900;2023-05-16T00:38:33;13.80;54.50
39325;DHT22;25037;49.488;9.900;2023-05-16T00:41:00;13.80;54.50
39325;DHT22;25037;49.488;9.900;2023-05-16T00:43:26;13.80;54.50
39325;DHT22;25037;49.488;9.900;2023-05-16T00:45:53;13.80;54.60
39325;DHT22;25037;49.488;9.900;2023-05-16T00:48:20;13.80;54.60
39325;DHT22;25037;49.488;9.900;2023-05-16T00:50:46;13.80;54.70
39325;DHT22;25037;49.488;9.900;2023-05-16T00:53:14;13.80;54.70
39325;DHT22;25037;49.488;9.900;2023-05-16T00:55:42;13.80;54.70
39325;DHT22;25037;49.488;9.900;2023-05-16T00:58:10;13.80;54.80
39325;DHT22;25037;49.488;9.900;2023-05-16T01:00:37;13.80;54.80
39325;DHT22;25037;49.488;9.900;2023-05-16T01:03:04;13.80;54.80
39325;DHT22;25037;49.488;9.900;2023-05-16T01:05:31;13.70;54.90
39325;DHT22;25037;49.488;9.900;2023-05-16T01:07:57;13.70;54.90
39325;DHT22;25037;49.488;9.900;2023-05-16T01:10:25;13.60;54.90
39325;DHT22;25037;49.488;9.900;2023-05-16T01:13:11;13.50;55.00
39325;DHT22;25037;49.488;9.900;2023-05-16T01:15:54;13.50;55.00
39325;DHT22;25037;49.488;9.900;2023-05-16T01:18:28;13.40;55.10
39325;DHT22;25037;49.488;9.900;2023-05-16T01:20:59;13.30;55.20
39325;DHT22;25037;49.488;9.900;2023-05-16T01:26:10;13.10;55.50
39325;DHT22;25037;49.488;9.900;2023-05-16T01:28:37;13.10;55.60
39325;DHT22;25037;49.488;9.900;2023-05-16T01:31:04;13.00;55.70
39325;DHT22;25037;49.488;9.900;2023-05-16T01:33:31;12.90;55.70
39325;DHT22;25037;49.488;9.900;2023-05-16T01:36:18;12.80;55.80
39325;DHT22;25037;49.488;9.900;2023-05-16T01:41:34;12.70;55.90
39325;DHT22;25037;49.488;9.900;2023-05-16T01:44:06;12.80;56.00
39325;DHT22;25037;49.488;9.900;2023-05-16T01:46:37;12.70;56.00
39325;DHT22;25037;49.488;9.900;2023-05-16T01:49:24;12.70;56.00
39325;DHT22;25037;49.488;9.900;2023-05-16T01:51:55;12.70;56.10
39325;DHT22;25037;49.488;9.900;2023-05-16T01:54:25;12.60;56.10
39325;DHT22;25037;49.488;9.900;2023-05-16T01:56:55;12.60;56.10
39325;DHT22;25037;49.488;9.900;2023-05-16T01:59:23;12.50;56.10
39325;DHT22;25037;49.488;9.900;2023-05-16T02:01:52;12.50;56.20
39325;DHT22;25037;49.488;9.900;2023-05-16T02:04:18;12.50;56.20
39325;DHT22;25037;49.488;9.900;2023-05-16T02:06:45;12.40;56.20
39325;DHT22;25037;49.488;9.900;2023-05-16T02:09:12;12.40;56.20
39325;DHT22;25037;49.488;9.900;2023-05-16T02:11:38;12.40;56.30
39325;DHT22;25037;49.488;9.900;2023-05-16T02:14:05;12.40;56.30
39325;DHT22;25037;49.488;9.900;2023-05-16T02:16:32;12.30;56.40
39325;DHT22;25037;49.488;9.900;2023-05-16T02:18:59;12.30;56.60
39325;DHT22;25037;49.488;9.900;2023-05-16T02:21:25;12.20;56.60
39325;DHT22;25037;49.488;9.900;2023-05-16T02:23:52;12.20;56.60
39325;DHT22;25037;49.488;9.900;2023-05-16T02:26:19;12.20;56.70
39325;DHT22;25037;49.488;9.900;2023-05-16T02:28:46;12.20;56.70
39325;DHT22;25037;49.488;9.900;2023-05-16T02:31:27;12.10;56.80
39325;DHT22;25037;49.488;9.900;2023-05-16T02:33:54;12.00;56.90
39325;DHT22;25037;49.488;9.900;2023-05-16T02:36:21;12.00;56.90
39325;DHT22;25037;49.488;9.900;2023-05-16T02:38:48;12.00;57.00
39325;DHT22;25037;49.488;9.900;2023-05-16T02:41:14;12.00;57.00
39325;DHT22;25037;49.488;9.900;2023-05-16T02:43:41;11.90;57.00
39325;DHT22;25037;49.488;9.900;2023-05-16T02:46:26;12.00;57.00
39325;DHT22;25037;49.488;9.900;2023-05-16T02:48:53;11.90;57.00
39325;DHT22;25037;49.488;9.900;2023-05-16T02:51:20;11.90;57.10
39325;DHT22;25037;49.488;9.900;2023-05-16T02:53:48;11.90;57.10
39325;DHT22;25037;49.488;9.900;2023-05-16T02:56:15;11.90;57.10
39325;DHT22;25037;49.488;9.900;2023-05-16T02:58:42;11.90;57.20
39325;DHT22;25037;49.488;9.900;2023-05-16T03:01:08;11.90;57.10
39325;DHT22;25037;49.488;9.900;2023-05-16T03:03:35;11.90;57.10
39325;DHT22;25037;49.488;9.900;2023-05-16T03:06:02;11.90;57.10
39325;DHT22;25037;49.488;9.900;2023-05-16T03:08:29;11.90;57.10
39325;DHT22;25037;49.488;9.900;2023-05-16T03:10:56;11.80;57.20
39325;DHT22;25037;49.488;9.900;2023-05-16T03:13:22;11.80;57.20
39325;DHT22;25037;49.488;9.900;2023-05-16T03:15:49;11.80;57.30
39325;DHT22;25037;49.488;9.900;2023-05-16T03:18:16;11.80;57.30
39325;DHT22;25037;49.488;9.900;2023-05-16T03:20:42;11.80;57.40
39325;DHT22;25037;49.488;9.900;2023-05-16T03:23:09;11.80;57.40
39325;DHT22;25037;49.488;9.900;2023-05-16T03:25:35;11.80;57.50
39325;DHT22;25037;49.488;9.900;2023-05-16T03:28:03;11.80;57.60
39325;DHT22;25037;49.488;9.900;2023-05-16T03:30:30;11.80;57.50
39325;DHT22;25037;49.488;9.900;2023-05-16T03:32:57;11.80;57.50
39325;DHT22;25037;49.488;9.900;2023-05-16T03:35:23;11.80;57.60
39325;DHT22;25037;49.488;9.900;2023-05-16T03:37:50;11.80;57.60
39325;DHT22;25037;49.488;9.900;2023-05-16T03:40:17;11.80;57.70
39325;DHT22;25037;49.488;9.900;2023-05-16T03:42:43;11.80;57.70
39325;DHT22;25037;49.488;9.900;2023-05-16T03:45:10;11.90;57.70
39325;DHT22;25037;49.488;9.900;2023-05-16T03:47:37;12.00;57.70
39325;DHT22;25037;49.488;9.900;2023-05-16T03:50:04;12.00;57.60
39325;DHT22;25037;49.488;9.900;2023-05-16T03:52:31;12.00;57.70
39325;DHT22;25037;49.488;9.900;2023-05-16T03:54:57;12.10;57.70
39325;DHT22;25037;49.488;9.900;2023-05-16T03:57:24;12.10;57.70
39325;DHT22;25037;49.488;9.900;2023-05-16T03:59:51;12.10;57.70
39325;DHT22;25037;49.488;9.900;2023-05-16T04:02:17;12.20;57.70
39325;DHT22;25037;49.488;9.900;2023-05-16T04:04:44;12.20;57.70
39325;DHT22;25037;49.488;9.900;2023-05-16T04:07:11;12.20;57.70
39325;DHT22;25037;49.488;9.900;2023-05-16T04:09:37;12.30;57.70
39325;DHT22;25037;49.488;9.900;2023-05-16T04:12:04;12.30;57.60
39325;DHT22;25037;49.488;9.900;2023-05-16T04:14:31;12.40;57.60
39325;DHT22;25037;49.488;9.900;2023-05-16T04:16:59;12.40;57.60
39325;DHT22;25037;49.488;9.900;2023-05-16T04:19:26;12.50;57.60
39325;DHT22;25037;49.488;9.900;2023-05-16T04:21:53;12.50;57.60
39325;DHT22;25037;49.488;9.900;2023-05-16T04:24:19;12.60;57.60
39325;DHT22;25037;49.488;9.900;2023-05-16T04:26:46;12.60;57.60
39325;DHT22;25037;49.488;9.900;2023-05-16T04:29:12;12.60;57.60
39325;DHT22;25037;49.488;9.900;2023-05-16T04:31:40;12.70;57.60
39325;DHT22;25037;49.488;9.900;2023-05-16T04:34:06;12.70;57.60
39325;DHT22;25037;49.488;9.900;2023-05-16T04:36:33;12.70;57.60
39325;DHT22;25037;49.488;9.900;2023-05-16T04:39:00;12.70;57.70
39325;DHT22;25037;49.488;9.900;2023-05-16T04:41:27;12.70;57.80
39325;DHT22;25037;49.488;9.900;2023-05-16T04:43:54;12.70;57.70
39325;DHT22;25037;49.488;9.900;2023-05-16T04:46:20;12.80;57.80
39325;DHT22;25037;49.488;9.900;2023-05-16T04:48:47;12.80;57.80
39325;DHT22;25037;49.488;9.900;2023-05-16T04:51:13;12.80;57.80
39325;DHT22;25037;49.488;9.900;2023-05-16T04:53:40;12.80;57.80
39325;DHT22;25037;49.488;9.900;2023-05-16T04:56:06;12.90;57.80
39325;DHT22;25037;49.488;9.900;2023-05-16T04:58:33;12.90;57.80
39325;DHT22;25037;49.488;9.900;2023-05-16T05:00:59;12.90;57.90
39325;DHT22;25037;49.488;9.900;2023-05-16T05:03:27;13.00;58.00
39325;DHT22;25037;49.488;9.900;2023-05-16T05:05:53;13.00;58.00
39325;DHT22;25037;49.488;9.900;2023-05-16T05:08:20;13.00;58.00
39325;DHT22;25037;49.488;9.900;2023-05-16T05:10:47;13.00;57.90
39325;DHT22;25037;49.488;9.900;2023-05-16T05:13:13;13.10;58.00
39325;DHT22;25037;49.488;9.900;2023-05-16T05:15:40;13.10;58.00
39325;DHT22;25037;49.488;9.900;2023-05-16T05:18:06;13.10;58.00
39325;DHT22;25037;49.488;9.900;2023-05-16T05:20:34;13.10;58.00
39325;DHT22;25037;49.488;9.900;2023-05-16T05:23:01;13.10;58.00
39325;DHT22;25037;49.488;9.900;2023-05-16T05:25:27;13.10;58.10
39325;DHT22;25037;49.488;9.900;2023-05-16T05:27:54;13.10;58.10
39325;DHT22;25037;49.488;9.900;2023-05-16T05:30:21;13.10;58.10
39325;DHT22;25037;49.488;9.900;2023-05-16T05:32:47;13.20;58.20
39325;DHT22;25037;49.488;9.900;2023-05-16T05:35:14;13.20;58.10
39325;DHT22;25037;49.488;9.900;2023-05-16T05:37:41;13.20;58.10
39325;DHT22;25037;49.488;9.900;2023-05-16T05:40:07;13.30;58.10
39325;DHT22;25037;49.488;9.900;2023-05-16T05:42:34;13.30;58.10
39325;DHT22;25037;49.488;9.900;2023-05-16T05:45:01;13.30;58.10
39325;DHT22;25037;49.488;9.900;2023-05-16T05:47:28;13.40;58.10
39325;DHT22;25037;49.488;9.900;2023-05-16T05:49:55;13.40;58.10
39325;DHT22;25037;49.488;9.900;2023-05-16T05:52:21;13.40;58.20
39325;DHT22;25037;49.488;9.900;2023-05-16T05:54:48;13.50;58.30
39325;DHT22;25037;49.488;9.900;2023-05-16T05:57:14;13.50;58.30
39325;DHT22;25037;49.488;9.900;2023-05-16T05:59:41;13.50;58.30
39325;DHT22;25037;49.488;9.900;2023-05-16T06:02:08;13.50;58.30
39325;DHT22;25037;49.488;9.900;2023-05-16T06:04:34;13.60;58.30
39325;DHT22;25037;49.488;9.900;2023-05-16T06:07:01;13.60;58.40
39325;DHT22;25037;49.488;9.900;2023-05-16T06:09:28;13.60;58.40
39325;DHT22;25037;49.488;9.900;2023-05-16T06:11:54;13.70;58.40
39325;DHT22;25037;49.488;9.900;2023-05-16T06:14:21;13.80;58.50
39325;DHT22;25037;49.488;9.900;2023-05-16T06:16:48;13.80;58.50
39325;DHT22;25037;49.488;9.900;2023-05-16T06:19:15;13.90;58.50
39325;DHT22;25037;49.488;9.900;2023-05-16T06:21:42;14.00;58.50
39325;DHT22;25037;49.488;9.900;2023-05-16T06:24:09;14.10;58.60
39325;DHT22;25037;49.488;9.900;2023-05-16T06:26:35;14.10;58.70
39325;DHT22;25037;49.488;9.900;2023-05-16T06:29:02;14.20;58.70
39325;DHT22;25037;49.488;9.900;2023-05-16T06:31:29;14.20;58.70
39325;DHT22;25037;49.488;9.900;2023-05-16T06:33:56;14.30;58.80
39325;DHT22;25037;49.488;9.900;2023-05-16T06:36:22;14.30;58.80
39325;DHT22;25037;49.488;9.900;2023-05-16T06:38:49;14.40;58.80
39325;DHT22;25037;49.488;9.900;2023-05-16T06:41:16;14.40;58.80
39325;DHT22;25037;49.488;9.900;2023-05-16T06:43:43;14.50;58.80
39325;DHT22;25037;49.488;9.900;2023-05-16T06:46:09;14.50;58.80
39325;DHT22;25037;49.488;9.900;2023-05-16T06:48:36;14.60;58.80
39325;DHT22;25037;49.488;9.900;2023-05-16T06:51:03;14.60;58.70
39325;DHT22;25037;49.488;9.900;2023-05-16T06:53:29;14.70;58.80
39325;DHT22;25037;49.488;9.900;2023-05-16T06:55:56;14.80;58.80
39325;DHT22;25037;49.488;9.900;2023-05-16T06:58:23;14.80;58.80
39325;DHT22;25037;49.488;9.900;2023-05-16T07:00:50;14.80;58.90
39325;DHT22;25037;49.488;9.900;2023-05-16T07:03:16;14.90;58.80
39325;DHT22;25037;49.488;9.900;2023-05-16T07:05:43;15.00;58.80
39325;DHT22;25037;49.488;9.900;2023-05-16T07:08:10;15.00;58.90
39325;DHT22;25037;49.488;9.900;2023-05-16T07:10:38;15.00;58.90
39325;DHT22;25037;49.488;9.900;2023-05-16T07:13:05;15.10;59.10
39325;DHT22;25037;49.488;9.900;2023-05-16T07:15:32;15.10;59.50
39325;DHT22;25037;49.488;9.900;2023-05-16T07:17:58;15.00;60.00
39325;DHT22;25037;49.488;9.900;2023-05-16T07:20:25;15.00;60.30
39325;DHT22;25037;49.488;9.900;2023-05-16T07:22:52;15.00;60.30
39325;DHT22;25037;49.488;9.900;2023-05-16T07:25:18;14.90;60.90
39325;DHT22;25037;49.488;9.900;2023-05-16T07:27:45;14.90;61.10
39325;DHT22;25037;49.488;9.900;2023-05-16T07:30:12;14.90;60.90
39325;DHT22;25037;49.488;9.900;2023-05-16T07:32:39;14.90;61.00
39325;DHT22;25037;49.488;9.900;2023-05-16T07:35:06;14.90;61.20
39325;DHT22;25037;49.488;9.900;2023-05-16T07:37:33;14.90;61.50
39325;DHT22;25037;49.488;9.900;2023-05-16T07:39:59;14.90;61.50
39325;DHT22;25037;49.488;9.900;2023-05-16T07:42:26;14.90;61.40
39325;DHT22;25037;49.488;9.900;2023-05-16T07:44:53;14.90;61.50
39325;DHT22;25037;49.488;9.900;2023-05-16T07:47:19;14.90;61.80
39325;DHT22;25037;49.488;9.900;2023-05-16T07:49:46;14.90;61.90
39325;DHT22;25037;49.488;9.900;2023-05-16T07:52:12;14.90;61.90
39325;DHT22;25037;49.488;9.900;2023-05-16T07:54:39;14.90;62.30
39325;DHT22;25037;49.488;9.900;2023-05-16T07:57:06;15.00;62.40
39325;DHT22;25037;49.488;9.900;2023-05-16T07:59:32;14.90;62.70
39325;DHT22;25037;49.488;9.900;2023-05-16T08:01:59;14.90;62.40
39325;DHT22;25037;49.488;9.900;2023-05-16T08:04:26;15.00;62.30
39325;DHT22;25037;49.488;9.900;2023-05-16T08:06:53;15.00;62.10
39325;DHT22;25037;49.488;9.900;2023-05-16T08:09:20;15.10;62.00
39325;DHT22;25037;49.488;9.900;2023-05-16T08:11:47;15.20;61.90
39325;DHT22;25037;49.488;9.900;2023-05-16T08:14:13;15.20;61.80
39325;DHT22;25037;49.488;9.900;2023-05-16T08:16:40;15.20;61.80
39325;DHT22;25037;49.488;9.900;2023-05-16T08:19:06;15.20;62.00
39325;DHT22;25037;49.488;9.900;2023-05-16T08:21:33;15.20;62.10
39325;DHT22;25037;49.488;9.900;2023-05-16T08:24:00;15.20;62.30
39325;DHT22;25037;49.488;9.900;2023-05-16T08:26:26;15.10;62.30
39325;DHT22;25037;49.488;9.900;2023-05-16T08:28:53;15.10;62.50
39325;DHT22;25037;49.488;9.900;2023-05-16T08:31:20;15.10;62.40
39325;DHT22;25037;49.488;9.900;2023-05-16T08:33:47;15.10;62.60
39325;DHT22;25037;49.488;9.900;2023-05-16T08:36:13;15.00;62.50
39325;DHT22;25037;49.488;9.900;2023-05-16T08:38:44;15.00;62.60
39325;DHT22;25037;49.488;9.900;2023-05-16T08:41:10;15.00;62.50
39325;DHT22;25037;49.488;9.900;2023-05-16T08:43:37;15.00;62.40
39325;DHT22;25037;49.488;9.900;2023-05-16T08:46:05;15.10;62.50
39325;DHT22;25037;49.488;9.900;2023-05-16T08:48:32;15.10;62.40
39325;DHT22;25037;49.488;9.900;2023-05-16T08:50:59;15.20;62.50
39325;DHT22;25037;49.488;9.900;2023-05-16T08:53:30;15.20;62.40
39325;DHT22;25037;49.488;9.900;2023-05-16T08:55:58;15.20;62.50
39325;DHT22;25037;49.488;9.900;2023-05-16T08:58:25;15.20;62.30
39325;DHT22;25037;49.488;9.900;2023-05-16T09:00:53;15.30;62.30
39325;DHT22;25037;49.488;9.900;2023-05-16T09:03:20;15.30;62.10
39325;DHT22;25037;49.488;9.900;2023-05-16T09:05:48;15.30;62.10
39325;DHT22;25037;49.488;9.900;2023-05-16T09:08:15;15.40;62.10
39325;DHT22;25037;49.488;9.900;2023-05-16T09:10:42;15.30;62.10
39325;DHT22;25037;49.488;9.900;2023-05-16T09:13:08;15.40;62.10
39325;DHT22;25037;49.488;9.900;2023-05-16T09:15:35;15.40;62.10
39325;DHT22;25037;49.488;9.900;2023-05-16T09:18:02;15.40;62.10
39325;DHT22;25037;49.488;9.900;2023-05-16T09:20:30;15.40;62.10
39325;DHT22;25037;49.488;9.900;2023-05-16T09:22:57;15.40;62.10
39325;DHT22;25037;49.488;9.900;2023-05-16T09:25:28;15.40;62.10
39325;DHT22;25037;49.488;9.900;2023-05-16T09:27:58;15.40;62.00
39325;DHT22;25037;49.488;9.900;2023-05-16T09:30:29;15.40;61.90
39325;DHT22;25037;49.488;9.900;2023-05-16T09:32:56;15.50;61.90
39325;DHT22;25037;49.488;9.900;2023-05-16T09:35:24;15.50;61.80
39325;DHT22;25037;49.488;9.900;2023-05-16T09:38:14;15.60;61.80
39325;DHT22;25037;49.488;9.900;2023-05-16T09:40:42;15.70;61.70
39325;DHT22;25037;49.488;9.900;2023-05-16T09:43:09;15.80;61.60
39325;DHT22;25037;49.488;9.900;2023-05-16T09:45:39;15.80;61.50
39325;DHT22;25037;49.488;9.900;2023-05-16T09:48:10;15.80;61.60
39325;DHT22;25037;49.488;9.900;2023-05-16T09:50:40;15.90;61.50
39325;DHT22;25037;49.488;9.900;2023-05-16T09:53:12;15.90;61.40
39325;DHT22;25037;49.488;9.900;2023-05-16T09:55:39;16.00;61.40
39325;DHT22;25037;49.488;9.900;2023-05-16T09:58:05;16.00;61.40
39325;DHT22;25037;49.488;9.900;2023-05-16T10:00:32;16.00;61.30
39325;DHT22;25037;49.488;9.900;2023-05-16T10:03:00;16.00;61.30
39325;DHT22;25037;49.488;9.900;2023-05-16T10:05:31;16.00;61.30
39325;DHT22;25037;49.488;9.900;2023-05-16T10:07:58;16.00;61.30
39325;DHT22;25037;49.488;9.900;2023-05-16T10:10:25;16.10;61.40
39325;DHT22;25037;49.488;9.900;2023-05-16T10:12:52;16.10;61.30
39325;DHT22;25037;49.488;9.900;2023-05-16T10:15:18;16.20;61.30
39325;DHT22;25037;49.488;9.900;2023-05-16T10:17:48;16.30;61.30
39325;DHT22;25037;49.488;9.900;2023-05-16T10:20:16;16.30;61.20
39325;DHT22;25037;49.488;9.900;2023-05-16T10:22:43;16.40;61.20
39325;DHT22;25037;49.488;9.900;2023-05-16T10:27:42;16.40;61.10
39325;DHT22;25037;49.488;9.900;2023-05-16T10:30:09;16.40;61.10
39325;DHT22;25037;49.488;9.900;2023-05-16T10:32:36;16.30;61.30
39325;DHT22;25037;49.488;9.900;2023-05-16T10:35:06;16.20;61.50
39325;DHT22;25037;49.488;9.900;2023-05-16T10:37:33;16.20;61.60
39325;DHT22;25037;49.488;9.900;2023-05-16T10:40:02;16.00;61.70
39325;DHT22;25037;49.488;9.900;2023-05-16T10:42:32;16.00;61.80
39325;DHT22;25037;49.488;9.900;2023-05-16T10:45:13;16.00;61.80
39325;DHT22;25037;49.488;9.900;2023-05-16T10:47:49;16.00;61.80
39325;DHT22;25037;49.488;9.900;2023-05-16T10:50:29;15.90;61.80
39325;DHT22;25037;49.488;9.900;2023-05-16T10:52:56;15.90;61.90
39325;DHT22;25037;49.488;9.900;2023-05-16T10:55:22;15.90;61.90
39325;DHT22;25037;49.488;9.900;2023-05-16T10:57:49;15.90;61.70
39325;DHT22;25037;49.488;9.900;2023-05-16T11:00:21;16.00;61.60
39325;DHT22;25037;49.488;9.900;2023-05-16T11:02:48;16.10;61.50
39325;DHT22;25037;49.488;9.900;2023-05-16T11:05:16;16.10;61.50
39325;DHT22;25037;49.488;9.900;2023-05-16T11:07:45;16.10;61.60
39325;DHT22;25037;49.488;9.900;2023-05-16T11:10:27;16.10;61.70
39325;DHT22;25037;49.488;9.900;2023-05-16T11:12:53;16.10;61.70
39325;DHT22;25037;49.488;9.900;2023-05-16T11:15:27;16.10;61.80
39325;DHT22;25037;49.488;9.900;2023-05-16T11:18:06;16.10;61.80
39325;DHT22;25037;49.488;9.900;2023-05-16T11:20:34;16.20;61.60
39325;DHT22;25037;49.488;9.900;2023-05-16T11:23:17;16.10;61.50
39325;DHT22;25037;49.488;9.900;2023-05-16T11:25:44;16.20;61.70
39325;DHT22;25037;49.488;9.900;2023-05-16T11:28:12;16.20;61.60
39325;DHT22;25037;49.488;9.900;2023-05-16T11:30:46;16.20;61.80
39325;DHT22;25037;49.488;9.900;2023-05-16T11:33:15;16.10;61.70
39325;DHT22;25037;49.488;9.900;2023-05-16T11:35:42;16.10;61.60
39325;DHT22;25037;49.488;9.900;2023-05-16T11:38:12;15.90;61.60
39325;DHT22;25037;49.488;9.900;2023-05-16T11:40:41;15.90;61.60
39325;DHT22;25037;49.488;9.900;2023-05-16T11:43:07;15.80;61.60
39325;DHT22;25037;49.488;9.900;2023-05-16T11:45:34;15.80;61.50
39325;DHT22;25037;49.488;9.900;2023-05-16T11:48:03;15.80;61.50
39325;DHT22;25037;49.488;9.900;2023-05-16T11:50:31;15.80;61.60
39325;DHT22;25037;49.488;9.900;2023-05-16T11:52:59;15.70;61.70
39325;DHT22;25037;49.488;9.900;2023-05-16T11:55:29;15.70;61.70
39325;DHT22;25037;49.488;9.900;2023-05-16T11:58:07;15.70;61.80
39325;DHT22;25037;49.488;9.900;2023-05-16T12:00:35;15.70;61.80
39325;DHT22;25037;49.488;9.900;2023-05-16T12:03:02;15.60;61.70
39325;DHT22;25037;49.488;9.900;2023-05-16T12:05:33;15.70;61.70
39325;DHT22;25037;49.488;9.900;2023-05-16T12:08:01;15.70;61.60
39325;DHT22;25037;49.488;9.900;2023-05-16T12:10:30;15.80;61.60
39325;DHT22;25037;49.488;9.900;2023-05-16T12:12:57;15.90;61.50
39325;DHT22;25037;49.488;9.900;2023-05-16T12:15:23;16.00;61.20
39325;DHT22;25037;49.488;9.900;2023-05-16T12:17:50;16.20;61.10
39325;DHT22;25037;49.488;9.900;2023-05-16T12:20:17;16.30;61.00
39325;DHT22;25037;49.488;9.900;2023-05-16T12:22:45;16.40;60.80
39325;DHT22;25037;49.488;9.900;2023-05-16T12:27:48;16.60;60.50
39325;DHT22;25037;49.488;9.900;2023-05-16T12:30:17;16.70;60.30
39325;DHT22;25037;49.488;9.900;2023-05-16T12:32:44;16.80;60.10
39325;DHT22;25037;49.488;9.900;2023-05-16T12:35:11;16.80;59.80
39325;DHT22;25037;49.488;9.900;2023-05-16T12:37:38;17.00;59.60
39325;DHT22;25037;49.488;9.900;2023-05-16T12:40:05;17.10;59.40
39325;DHT22;25037;49.488;9.900;2023-05-16T12:42:32;17.20;59.20
39325;DHT22;25037;49.488;9.900;2023-05-16T12:44:59;17.20;59.00
39325;DHT22;25037;49.488;9.900;2023-05-16T12:47:44;17.30;58.90
39325;DHT22;25037;49.488;9.900;2023-05-16T12:50:12;17.30;58.60
39325;DHT22;25037;49.488;9.900;2023-05-16T12:52:46;17.30;58.40
39325;DHT22;25037;49.488;9.900;2023-05-16T12:55:13;17.20;58.30
39325;DHT22;25037;49.488;9.900;2023-05-16T12:57:41;17.20;58.30
39325;DHT22;25037;49.488;9.900;2023-05-16T13:00:10;17.20;58.20
39325;DHT22;25037;49.488;9.900;2023-05-16T13:02:37;17.20;58.00
39325;DHT22;25037;49.488;9.900;2023-05-16T13:05:04;17.10;58.00
39325;DHT22;25037;49.488;9.900;2023-05-16T13:07:33;17.10;58.10
39325;DHT22;25037;49.488;9.900;2023-05-16T13:10:00;17.20;58.00
39325;DHT22;25037;49.488;9.900;2023-05-16T13:12:27;17.30;57.70
39325;DHT22;25037;49.488;9.900;2023-05-16T13:14:53;17.40;57.10
39325;DHT22;25037;49.488;9.900;2023-05-16T13:17:20;17.60;57.00
39325;DHT22;25037;49.488;9.900;2023-05-16T13:19:49;17.80;56.90
39325;DHT22;25037;49.488;9.900;2023-05-16T13:22:15;17.90;56.10
39325;DHT22;25037;49.488;9.900;2023-05-16T13:24:42;17.90;55.70
39325;DHT22;25037;49.488;9.900;2023-05-16T13:27:09;17.80;55.30
39325;DHT22;25037;49.488;9.900;2023-05-16T13:29:35;18.00;55.20
39325;DHT22;25037;49.488;9.900;2023-05-16T13:32:02;18.10;55.00
39325;DHT22;25037;49.488;9.900;2023-05-16T13:34:29;18.10;54.60
39325;DHT22;25037;49.488;9.900;2023-05-16T13:36:57;18.10;54.70
39325;DHT22;25037;49.488;9.900;2023-05-16T13:39:24;18.00;54.90
39325;DHT22;25037;49.488;9.900;2023-05-16T13:41:50;18.00;54.80
39325;DHT22;25037;49.488;9.900;2023-05-16T13:44:17;18.00;54.90
39325;DHT22;25037;49.488;9.900;2023-05-16T13:46:44;18.00;55.00
39325;DHT22;25037;49.488;9.900;2023-05-16T13:49:11;17.90;54.90
39325;DHT22;25037;49.488;9.900;2023-05-16T13:51:37;17.80;55.00
39325;DHT22;25037;49.488;9.900;2023-05-16T13:54:04;17.80;54.90
39325;DHT22;25037;49.488;9.900;2023-05-16T13:56:31;17.60;55.00
39325;DHT22;25037;49.488;9.900;2023-05-16T13:58:57;17.60;55.30
39325;DHT22;25037;49.488;9.900;2023-05-16T14:01:31;17.70;55.20
39325;DHT22;25037;49.488;9.900;2023-05-16T14:03:58;17.70;55.20
39325;DHT22;25037;49.488;9.900;2023-05-16T14:06:25;17.70;55.10
39325;DHT22;25037;49.488;9.900;2023-05-16T14:08:51;17.70;55.10
39325;DHT22;25037;49.488;9.900;2023-05-16T14:11:18;17.70;55.00
39325;DHT22;25037;49.488;9.900;2023-05-16T14:13:45;17.70;54.90
39325;DHT22;25037;49.488;9.900;2023-05-16T14:16:12;17.60;54.70
39325;DHT22;25037;49.488;9.900;2023-05-16T14:18:38;17.60;54.60
39325;DHT22;25037;49.488;9.900;2023-05-16T14:21:05;17.60;54.60
39325;DHT22;25037;49.488;9.900;2023-05-16T14:23:32;17.60;54.50
39325;DHT22;25037;49.488;9.900;2023-05-16T14:25:59;17.70;54.50
39325;DHT22;25037;49.488;9.900;2023-05-16T14:28:26;17.70;54.40
39325;DHT22;25037;49.488;9.900;2023-05-16T14:30:53;17.70;54.40
39325;DHT22;25037;49.488;9.900;2023-05-16T14:33:19;17.80;54.10
39325;DHT22;25037;49.488;9.900;2023-05-16T14:35:46;17.80;53.80
39325;DHT22;25037;49.488;9.900;2023-05-16T14:38:15;17.80;53.60
39325;DHT22;25037;49.488;9.900;2023-05-16T14:40:42;17.80;53.70
39325;DHT22;25037;49.488;9.900;2023-05-16T14:43:08;17.90;53.80
39325;DHT22;25037;49.488;9.900;2023-05-16T14:45:36;17.80;53.30
39325;DHT22;25037;49.488;9.900;2023-05-16T14:48:02;17.80;53.30
39325;DHT22;25037;49.488;9.900;2023-05-16T14:50:33;17.70;53.50
39325;DHT22;25037;49.488;9.900;2023-05-16T14:53:00;17.70;53.30
39325;DHT22;25037;49.488;9.900;2023-05-16T14:55:27;17.60;53.20
39325;DHT22;25037;49.488;9.900;2023-05-16T14:57:54;17.50;53.10
39325;DHT22;25037;49.488;9.900;2023-05-16T15:00:25;17.50;53.30
39325;DHT22;25037;49.488;9.900;2023-05-16T15:02:52;17.50;53.40
39325;DHT22;25037;49.488;9.900;2023-05-16T15:05:19;17.40;53.40
39325;DHT22;25037;49.488;9.900;2023-05-16T15:07:46;17.30;53.30
39325;DHT22;25037;49.488;9.900;2023-05-16T15:10:13;17.30;53.50
39325;DHT22;25037;49.488;9.900;2023-05-16T15:12:39;17.20;53.60
39325;DHT22;25037;49.488;9.900;2023-05-16T15:15:06;17.20;53.70
39325;DHT22;25037;49.488;9.900;2023-05-16T15:17:38;17.20;53.70
39325;DHT22;25037;49.488;9.900;2023-05-16T15:20:06;17.10;53.70
39325;DHT22;25037;49.488;9.900;2023-05-16T15:22:34;17.10;53.70
39325;DHT22;25037;49.488;9.900;2023-05-16T15:25:00;17.10;53.70
39325;DHT22;25037;49.488;9.900;2023-05-16T15:27:27;17.10;53.70
39325;DHT22;25037;49.488;9.900;2023-05-16T15:29:54;17.10;53.60
39325;DHT22;25037;49.488;9.900;2023-05-16T15:32:21;17.10;53.70
39325;DHT22;25037;49.488;9.900;2023-05-16T15:34:48;17.10;53.70
39325;DHT22;25037;49.488;9.900;2023-05-16T15:37:17;17.20;53.60
39325;DHT22;25037;49.488;9.900;2023-05-16T15:39:43;17.20;53.60
39325;DHT22;25037;49.488;9.900;2023-05-16T15:42:10;17.20;53.50
39325;DHT22;25037;49.488;9.900;2023-05-16T15:44:37;17.10;53.50